sensor_id;sensor_type;location;lat;lon;timestamp;P1;durP1;ratioP1;P2;durP2;ratioP2
38318;SDS011;24121;53.536;10.224;2024-03-08T00:00:14;22.92;;;14.68;;
38318;SDS011;24121;53.536;10.224;2024-03-08T00:02:43;19.40;;;13.30;;
38318;SDS011;24121;53.536;10.224;2024-03-08T00:05:10;20.63;;;13.23;;
38318;SDS011;24121;53.536;10.224;2024-03-08T00:07:36;21.27;;;13.32;;
38318;SDS011;24121;53.536;10.224;2024-03-08T00:10:06;21.65;;;13.40;;
38318;SDS011;24121;53.536;10.224;2024-03-08T00:12:36;22.58;;;13.40;;
38318;SDS011;24121;53.536;10.224;2024-03-08T00:15:06;19.55;;;12.55;;
38318;SDS011;24121;53.536;10.224;2024-03-08T00:17:33;24.00;;;14.32;;
38318;SDS011;24121;53.536;10.224;2024-03-08T00:19:58;20.38;;;13.18;;
38318;SDS011;24121;53.536;10.224;2024-03-08T00:22:23;21.80;;;14.18;;
38318;SDS011;24121;53.536;10.224;2024-03-08T08:37:17;34.75;;;18.45;;
38318;SDS011;24121;53.536;10.224;2024-03-08T08:39:42;36.70;;;19.67;;
38318;SDS011;24121;53.536;10.224;2024-03-08T08:42:08;35.80;;;19.63;;
38318;SDS011;24121;53.536;10.224;2024-03-08T08:44:34;36.05;;;19.08;;
38318;SDS011;24121;53.536;10.224;2024-03-08T08:47:00;40.15;;;21.88;;
38318;SDS011;24121;53.536;10.224;2024-03-08T08:49:26;32.78;;;20.38;;
38318;SDS011;24121;53.536;10.224;2024-03-08T08:51:53;33.60;;;19.17;;
38318;SDS011;24121;53.536;10.224;2024-03-08T08:54:18;31.92;;;20.15;;
38318;SDS011;24121;53.536;10.224;2024-03-08T08:56:44;33.47;;;20.83;;
38318;SDS011;24121;53.536;10.224;2024-03-08T08:59:10;33.70;;;19.55;;
38318;SDS011;24121;53.536;10.224;2024-03-08T09:01:38;37.25;;;20.00;;
38318;SDS011;24121;53.536;10.224;2024-03-08T09:04:07;30.90;;;19.42;;
38318;SDS011;24121;53.536;10.224;2024-03-08T09:06:33;29.98;;;17.40;;
38318;SDS011;24121;53.536;10.224;2024-03-08T09:08:58;30.80;;;19.52;;
38318;SDS011;24121;53.536;10.224;2024-03-08T09:11:23;29.13;;;17.85;;
38318;SDS011;24121;53.536;10.224;2024-03-08T09:13:50;31.05;;;18.70;;
38318;SDS011;24121;53.536;10.224;2024-03-08T09:16:15;33.80;;;19.42;;
38318;SDS011;24121;53.536;10.224;2024-03-08T09:18:41;31.98;;;19.58;;
38318;SDS011;24121;53.536;10.224;2024-03-08T09:21:06;31.05;;;19.05;;
38318;SDS011;24121;53.536;10.224;2024-03-08T09:23:34;31.60;;;19.42;;
38318;SDS011;24121;53.536;10.224;2024-03-08T09:26:00;31.90;;;19.77;;
38318;SDS011;24121;53.536;10.224;2024-03-08T09:28:26;32.33;;;18.88;;
38318;SDS011;24121;53.536;10.224;2024-03-08T09:30:52;28.27;;;18.15;;
38318;SDS011;24121;53.536;10.224;2024-03-08T09:33:17;27.92;;;17.63;;
38318;SDS011;24121;53.536;10.224;2024-03-08T09:35:47;28.15;;;17.88;;
38318;SDS011;24121;53.536;10.224;2024-03-08T09:38:13;30.27;;;18.52;;
38318;SDS011;24121;53.536;10.224;2024-03-08T09:40:43;27.17;;;16.98;;
38318;SDS011;24121;53.536;10.224;2024-03-08T09:43:09;28.83;;;17.85;;
38318;SDS011;24121;53.536;10.224;2024-03-08T09:45:36;25.10;;;15.43;;
38318;SDS011;24121;53.536;10.224;2024-03-08T09:48:05;27.40;;;18.00;;
38318;SDS011;24121;53.536;10.224;2024-03-08T09:50:40;29.77;;;17.77;;
38318;SDS011;24121;53.536;10.224;2024-03-08T09:53:06;29.05;;;17.65;;
38318;SDS011;24121;53.536;10.224;2024-03-08T09:55:34;28.00;;;17.90;;
38318;SDS011;24121;53.536;10.224;2024-03-08T09:58:02;27.30;;;17.02;;
38318;SDS011;24121;53.536;10.224;2024-03-08T10:00:48;28.40;;;17.70;;
38318;SDS011;24121;53.536;10.224;2024-03-08T10:03:13;27.92;;;17.27;;
38318;SDS011;24121;53.536;10.224;2024-03-08T10:05:42;30.17;;;19.40;;
38318;SDS011;24121;53.536;10.224;2024-03-08T10:08:08;28.05;;;18.67;;
38318;SDS011;24121;53.536;10.224;2024-03-08T10:10:34;27.30;;;17.38;;
38318;SDS011;24121;53.536;10.224;2024-03-08T10:12:59;27.50;;;17.60;;
38318;SDS011;24121;53.536;10.224;2024-03-08T10:15:26;25.42;;;17.17;;
38318;SDS011;24121;53.536;10.224;2024-03-08T10:17:55;24.65;;;17.05;;
38318;SDS011;24121;53.536;10.224;2024-03-08T10:20:21;26.52;;;17.67;;
38318;SDS011;24121;53.536;10.224;2024-03-08T10:22:46;26.42;;;16.38;;
38318;SDS011;24121;53.536;10.224;2024-03-08T10:25:11;25.58;;;16.35;;
38318;SDS011;24121;53.536;10.224;2024-03-08T10:27:40;25.45;;;16.52;;
38318;SDS011;24121;53.536;10.224;2024-03-08T10:30:06;25.98;;;16.98;;
38318;SDS011;24121;53.536;10.224;2024-03-08T10:32:35;23.77;;;16.03;;
38318;SDS011;24121;53.536;10.224;2024-03-08T10:35:00;24.67;;;15.63;;
38318;SDS011;24121;53.536;10.224;2024-03-08T10:37:26;25.00;;;16.67;;
38318;SDS011;24121;53.536;10.224;2024-03-08T10:40:03;25.17;;;17.25;;
38318;SDS011;24121;53.536;10.224;2024-03-08T10:42:35;23.20;;;14.95;;
38318;SDS011;24121;53.536;10.224;2024-03-08T10:45:05;23.13;;;15.88;;
38318;SDS011;24121;53.536;10.224;2024-03-08T10:47:33;26.88;;;15.35;;
38318;SDS011;24121;53.536;10.224;2024-03-08T10:52:45;21.60;;;14.35;;
38318;SDS011;24121;53.536;10.224;2024-03-08T10:55:13;23.50;;;15.20;;
38318;SDS011;24121;53.536;10.224;2024-03-08T10:57:39;23.90;;;15.82;;
38318;SDS011;24121;53.536;10.224;2024-03-08T11:00:06;23.13;;;14.60;;
38318;SDS011;24121;53.536;10.224;2024-03-08T11:02:35;24.38;;;15.38;;
38318;SDS011;24121;53.536;10.224;2024-03-08T11:05:00;22.92;;;14.60;;
38318;SDS011;24121;53.536;10.224;2024-03-08T11:07:28;22.80;;;14.52;;
38318;SDS011;24121;53.536;10.224;2024-03-08T11:09:59;21.98;;;13.93;;
38318;SDS011;24121;53.536;10.224;2024-03-08T11:12:29;22.08;;;14.00;;
38318;SDS011;24121;53.536;10.224;2024-03-08T11:15:11;19.60;;;13.23;;
38318;SDS011;24121;53.536;10.224;2024-03-08T11:20:04;21.42;;;13.88;;
38318;SDS011;24121;53.536;10.224;2024-03-08T11:22:40;23.58;;;13.68;;
38318;SDS011;24121;53.536;10.224;2024-03-08T11:25:08;21.30;;;13.82;;
38318;SDS011;24121;53.536;10.224;2024-03-08T11:27:35;22.98;;;14.18;;
38318;SDS011;24121;53.536;10.224;2024-03-08T11:30:02;21.60;;;14.15;;
38318;SDS011;24121;53.536;10.224;2024-03-08T11:32:48;21.15;;;13.75;;
38318;SDS011;24121;53.536;10.224;2024-03-08T11:35:20;22.23;;;14.52;;
38318;SDS011;24121;53.536;10.224;2024-03-08T11:37:47;20.15;;;14.02;;
38318;SDS011;24121;53.536;10.224;2024-03-08T11:40:13;22.00;;;13.68;;
38318;SDS011;24121;53.536;10.224;2024-03-08T11:42:48;22.20;;;13.98;;
38318;SDS011;24121;53.536;10.224;2024-03-08T11:45:14;19.42;;;13.60;;
38318;SDS011;24121;53.536;10.224;2024-03-08T11:47:42;20.30;;;13.30;;
38318;SDS011;24121;53.536;10.224;2024-03-08T11:50:09;18.08;;;13.00;;
38318;SDS011;24121;53.536;10.224;2024-03-08T11:52:36;21.42;;;13.88;;
38318;SDS011;24121;53.536;10.224;2024-03-08T11:55:04;19.33;;;13.38;;
38318;SDS011;24121;53.536;10.224;2024-03-08T11:57:30;17.60;;;11.75;;
38318;SDS011;24121;53.536;10.224;2024-03-08T11:59:55;22.05;;;13.15;;
38318;SDS011;24121;53.536;10.224;2024-03-08T12:02:21;21.83;;;13.20;;
38318;SDS011;24121;53.536;10.224;2024-03-08T12:04:48;19.50;;;13.32;;
38318;SDS011;24121;53.536;10.224;2024-03-08T12:07:28;18.60;;;13.43;;
38318;SDS011;24121;53.536;10.224;2024-03-08T12:12:42;19.48;;;13.70;;
38318;SDS011;24121;53.536;10.224;2024-03-08T12:15:11;17.73;;;12.18;;
38318;SDS011;24121;53.536;10.224;2024-03-08T12:17:37;19.58;;;13.57;;
38318;SDS011;24121;53.536;10.224;2024-03-08T12:20:20;22.33;;;13.35;;
38318;SDS011;24121;53.536;10.224;2024-03-08T12:22:50;18.77;;;12.85;;
38318;SDS011;24121;53.536;10.224;2024-03-08T12:25:18;22.40;;;13.23;;
38318;SDS011;24121;53.536;10.224;2024-03-08T12:27:43;20.17;;;13.70;;
38318;SDS011;24121;53.536;10.224;2024-03-08T12:30:16;21.20;;;14.90;;
38318;SDS011;24121;53.536;10.224;2024-03-08T12:32:46;20.52;;;13.85;;
38318;SDS011;24121;53.536;10.224;2024-03-08T12:35:35;21.67;;;14.20;;
38318;SDS011;24121;53.536;10.224;2024-03-08T12:38:02;20.70;;;13.68;;
38318;SDS011;24121;53.536;10.224;2024-03-08T12:40:28;18.63;;;13.15;;
38318;SDS011;24121;53.536;10.224;2024-03-08T12:43:03;17.48;;;11.95;;
38318;SDS011;24121;53.536;10.224;2024-03-08T12:45:28;18.38;;;12.32;;
38318;SDS011;24121;53.536;10.224;2024-03-08T12:47:54;20.50;;;13.68;;
38318;SDS011;24121;53.536;10.224;2024-03-08T12:50:20;17.45;;;13.35;;
38318;SDS011;24121;53.536;10.224;2024-03-08T12:52:46;19.23;;;12.80;;
38318;SDS011;24121;53.536;10.224;2024-03-08T12:55:12;18.05;;;12.25;;
38318;SDS011;24121;53.536;10.224;2024-03-08T12:57:37;17.88;;;11.13;;
38318;SDS011;24121;53.536;10.224;2024-03-08T13:00:03;17.70;;;11.32;;
38318;SDS011;24121;53.536;10.224;2024-03-08T13:02:30;19.95;;;13.00;;
38318;SDS011;24121;53.536;10.224;2024-03-08T13:04:57;16.40;;;11.73;;
38318;SDS011;24121;53.536;10.224;2024-03-08T13:07:23;17.50;;;12.18;;
38318;SDS011;24121;53.536;10.224;2024-03-08T13:09:50;16.08;;;11.02;;
38318;SDS011;24121;53.536;10.224;2024-03-08T13:12:17;17.98;;;11.27;;
38318;SDS011;24121;53.536;10.224;2024-03-08T13:14:42;19.45;;;12.68;;
38318;SDS011;24121;53.536;10.224;2024-03-08T13:17:08;17.90;;;12.63;;
38318;SDS011;24121;53.536;10.224;2024-03-08T13:19:36;18.70;;;12.07;;
38318;SDS011;24121;53.536;10.224;2024-03-08T13:22:03;17.13;;;12.02;;
38318;SDS011;24121;53.536;10.224;2024-03-08T13:24:32;19.33;;;12.65;;
38318;SDS011;24121;53.536;10.224;2024-03-08T13:26:58;18.55;;;12.13;;
38318;SDS011;24121;53.536;10.224;2024-03-08T13:29:24;16.80;;;11.27;;
38318;SDS011;24121;53.536;10.224;2024-03-08T13:31:50;17.98;;;11.55;;
38318;SDS011;24121;53.536;10.224;2024-03-08T13:34:20;21.63;;;12.18;;
38318;SDS011;24121;53.536;10.224;2024-03-08T13:36:53;16.35;;;11.65;;
38318;SDS011;24121;53.536;10.224;2024-03-08T13:39:19;17.50;;;11.55;;
38318;SDS011;24121;53.536;10.224;2024-03-08T13:41:45;18.90;;;10.48;;
38318;SDS011;24121;53.536;10.224;2024-03-08T13:44:11;16.33;;;11.00;;
38318;SDS011;24121;53.536;10.224;2024-03-08T13:46:37;14.68;;;10.60;;
38318;SDS011;24121;53.536;10.224;2024-03-08T13:49:03;15.98;;;10.85;;
38318;SDS011;24121;53.536;10.224;2024-03-08T13:51:31;15.40;;;10.65;;
38318;SDS011;24121;53.536;10.224;2024-03-08T13:53:57;15.90;;;10.85;;
38318;SDS011;24121;53.536;10.224;2024-03-08T13:56:22;17.55;;;10.88;;
38318;SDS011;24121;53.536;10.224;2024-03-08T13:58:48;15.93;;;10.95;;
38318;SDS011;24121;53.536;10.224;2024-03-08T14:01:13;16.77;;;10.52;;
38318;SDS011;24121;53.536;10.224;2024-03-08T14:03:38;15.68;;;10.73;;
38318;SDS011;24121;53.536;10.224;2024-03-08T14:06:07;14.70;;;10.30;;
38318;SDS011;24121;53.536;10.224;2024-03-08T14:08:33;15.32;;;11.20;;
38318;SDS011;24121;53.536;10.224;2024-03-08T14:10:59;17.10;;;11.70;;
38318;SDS011;24121;53.536;10.224;2024-03-08T14:13:24;16.08;;;11.13;;
38318;SDS011;24121;53.536;10.224;2024-03-08T14:15:50;15.73;;;10.02;;
38318;SDS011;24121;53.536;10.224;2024-03-08T14:18:16;15.18;;;9.45;;
38318;SDS011;24121;53.536;10.224;2024-03-08T14:20:42;14.20;;;10.13;;
38318;SDS011;24121;53.536;10.224;2024-03-08T14:23:07;16.15;;;10.50;;
38318;SDS011;24121;53.536;10.224;2024-03-08T14:25:33;14.38;;;9.73;;
38318;SDS011;24121;53.536;10.224;2024-03-08T14:27:58;16.15;;;9.90;;
38318;SDS011;24121;53.536;10.224;2024-03-08T14:30:27;14.25;;;9.70;;
38318;SDS011;24121;53.536;10.224;2024-03-08T14:33:03;15.82;;;10.25;;
38318;SDS011;24121;53.536;10.224;2024-03-08T14:35:30;23.13;;;11.25;;
38318;SDS011;24121;53.536;10.224;2024-03-08T14:37:56;16.17;;;10.45;;
38318;SDS011;24121;53.536;10.224;2024-03-08T14:40:25;14.88;;;9.50;;
38318;SDS011;24121;53.536;10.224;2024-03-08T14:42:52;14.77;;;10.15;;
38318;SDS011;24121;53.536;10.224;2024-03-08T14:45:18;13.88;;;9.95;;
38318;SDS011;24121;53.536;10.224;2024-03-08T14:47:50;14.50;;;9.57;;
38318;SDS011;24121;53.536;10.224;2024-03-08T14:50:24;14.73;;;9.77;;
38318;SDS011;24121;53.536;10.224;2024-03-08T14:52:50;14.52;;;9.65;;
38318;SDS011;24121;53.536;10.224;2024-03-08T14:55:16;14.45;;;9.88;;
38318;SDS011;24121;53.536;10.224;2024-03-08T14:57:44;16.25;;;9.60;;
38318;SDS011;24121;53.536;10.224;2024-03-08T15:00:10;16.75;;;9.85;;
38318;SDS011;24121;53.536;10.224;2024-03-08T15:02:42;15.93;;;9.45;;
38318;SDS011;24121;53.536;10.224;2024-03-08T15:05:08;12.80;;;9.13;;
38318;SDS011;24121;53.536;10.224;2024-03-08T15:07:39;14.48;;;9.98;;
38318;SDS011;24121;53.536;10.224;2024-03-08T15:10:08;15.13;;;10.13;;
38318;SDS011;24121;53.536;10.224;2024-03-08T15:12:45;14.13;;;9.70;;
38318;SDS011;24121;53.536;10.224;2024-03-08T15:15:12;17.08;;;9.82;;
38318;SDS011;24121;53.536;10.224;2024-03-08T15:17:42;15.43;;;9.90;;
38318;SDS011;24121;53.536;10.224;2024-03-08T15:20:12;13.97;;;9.43;;
38318;SDS011;24121;53.536;10.224;2024-03-08T15:22:52;12.77;;;9.77;;
38318;SDS011;24121;53.536;10.224;2024-03-08T15:25:20;14.27;;;9.73;;
38318;SDS011;24121;53.536;10.224;2024-03-08T15:27:50;16.08;;;10.07;;
38318;SDS011;24121;53.536;10.224;2024-03-08T15:30:16;14.68;;;9.55;;
38318;SDS011;24121;53.536;10.224;2024-03-08T15:32:45;14.18;;;10.25;;
38318;SDS011;24121;53.536;10.224;2024-03-08T15:35:12;14.00;;;9.73;;
38318;SDS011;24121;53.536;10.224;2024-03-08T15:37:42;16.08;;;10.27;;
38318;SDS011;24121;53.536;10.224;2024-03-08T15:40:11;16.40;;;9.27;;
38318;SDS011;24121;53.536;10.224;2024-03-08T15:42:47;15.57;;;10.73;;
38318;SDS011;24121;53.536;10.224;2024-03-08T15:45:14;15.40;;;10.10;;
38318;SDS011;24121;53.536;10.224;2024-03-08T15:47:41;17.48;;;10.50;;
38318;SDS011;24121;53.536;10.224;2024-03-08T15:50:08;16.10;;;10.88;;
38318;SDS011;24121;53.536;10.224;2024-03-08T15:52:37;14.80;;;10.40;;
38318;SDS011;24121;53.536;10.224;2024-03-08T15:55:06;16.50;;;10.77;;
38318;SDS011;24121;53.536;10.224;2024-03-08T15:57:32;15.77;;;10.38;;
38318;SDS011;24121;53.536;10.224;2024-03-08T15:59:58;13.80;;;9.02;;
38318;SDS011;24121;53.536;10.224;2024-03-08T16:02:25;15.65;;;10.63;;
38318;SDS011;24121;53.536;10.224;2024-03-08T16:04:53;15.70;;;10.10;;
38318;SDS011;24121;53.536;10.224;2024-03-08T16:07:19;13.50;;;9.43;;
38318;SDS011;24121;53.536;10.224;2024-03-08T16:09:44;15.82;;;10.32;;
38318;SDS011;24121;53.536;10.224;2024-03-08T16:12:10;16.70;;;9.77;;
38318;SDS011;24121;53.536;10.224;2024-03-08T16:14:38;16.52;;;9.98;;
38318;SDS011;24121;53.536;10.224;2024-03-08T16:17:03;14.65;;;10.07;;
38318;SDS011;24121;53.536;10.224;2024-03-08T16:19:29;14.85;;;10.85;;
38318;SDS011;24121;53.536;10.224;2024-03-08T16:21:56;14.20;;;9.77;;
38318;SDS011;24121;53.536;10.224;2024-03-08T16:24:22;13.57;;;9.23;;
38318;SDS011;24121;53.536;10.224;2024-03-08T16:26:48;16.02;;;10.00;;
38318;SDS011;24121;53.536;10.224;2024-03-08T16:29:13;17.55;;;10.25;;
38318;SDS011;24121;53.536;10.224;2024-03-08T16:31:40;13.70;;;9.20;;
38318;SDS011;24121;53.536;10.224;2024-03-08T16:34:05;15.13;;;10.02;;
38318;SDS011;24121;53.536;10.224;2024-03-08T16:36:32;14.82;;;10.25;;
38318;SDS011;24121;53.536;10.224;2024-03-08T16:38:57;17.92;;;10.88;;
38318;SDS011;24121;53.536;10.224;2024-03-08T16:41:23;15.18;;;10.55;;
38318;SDS011;24121;53.536;10.224;2024-03-08T16:43:48;16.08;;;10.95;;
38318;SDS011;24121;53.536;10.224;2024-03-08T16:46:14;16.95;;;11.10;;
38318;SDS011;24121;53.536;10.224;2024-03-08T16:48:39;18.70;;;10.55;;
38318;SDS011;24121;53.536;10.224;2024-03-08T16:51:05;15.00;;;10.60;;
38318;SDS011;24121;53.536;10.224;2024-03-08T16:53:33;16.15;;;10.63;;
38318;SDS011;24121;53.536;10.224;2024-03-08T16:55:59;15.88;;;10.88;;
38318;SDS011;24121;53.536;10.224;2024-03-08T16:58:25;15.05;;;11.25;;
38318;SDS011;24121;53.536;10.224;2024-03-08T17:00:50;17.08;;;11.40;;
38318;SDS011;24121;53.536;10.224;2024-03-08T17:03:16;18.67;;;12.07;;
38318;SDS011;24121;53.536;10.224;2024-03-08T17:05:44;16.85;;;11.13;;
38318;SDS011;24121;53.536;10.224;2024-03-08T17:08:15;21.88;;;12.57;;
38318;SDS011;24121;53.536;10.224;2024-03-08T17:10:42;18.33;;;11.75;;
38318;SDS011;24121;53.536;10.224;2024-03-08T17:13:08;18.30;;;12.18;;
38318;SDS011;24121;53.536;10.224;2024-03-08T17:15:33;17.15;;;11.98;;
38318;SDS011;24121;53.536;10.224;2024-03-08T17:18:00;17.13;;;11.48;;
38318;SDS011;24121;53.536;10.224;2024-03-08T17:20:30;20.13;;;12.48;;
38318;SDS011;24121;53.536;10.224;2024-03-08T17:22:56;19.65;;;12.70;;
38318;SDS011;24121;53.536;10.224;2024-03-08T17:25:22;19.30;;;12.60;;
38318;SDS011;24121;53.536;10.224;2024-03-08T17:27:50;17.40;;;12.68;;
38318;SDS011;24121;53.536;10.224;2024-03-08T17:30:18;20.05;;;12.85;;
38318;SDS011;24121;53.536;10.224;2024-03-08T17:32:47;19.20;;;13.32;;
38318;SDS011;24121;53.536;10.224;2024-03-08T17:35:19;18.00;;;12.70;;
38318;SDS011;24121;53.536;10.224;2024-03-08T17:37:45;17.92;;;12.38;;
38318;SDS011;24121;53.536;10.224;2024-03-08T17:40:12;17.38;;;11.63;;
38318;SDS011;24121;53.536;10.224;2024-03-08T17:42:38;20.42;;;12.75;;
38318;SDS011;24121;53.536;10.224;2024-03-08T17:45:03;20.58;;;13.40;;
38318;SDS011;24121;53.536;10.224;2024-03-08T17:47:30;19.15;;;12.35;;
38318;SDS011;24121;53.536;10.224;2024-03-08T17:49:56;20.48;;;12.88;;
38318;SDS011;24121;53.536;10.224;2024-03-08T17:52:21;19.60;;;12.82;;
38318;SDS011;24121;53.536;10.224;2024-03-08T17:54:48;18.85;;;12.32;;
38318;SDS011;24121;53.536;10.224;2024-03-08T17:57:14;20.05;;;12.20;;
38318;SDS011;24121;53.536;10.224;2024-03-08T17:59:40;19.27;;;12.05;;
38318;SDS011;24121;53.536;10.224;2024-03-08T18:02:05;18.63;;;12.50;;
38318;SDS011;24121;53.536;10.224;2024-03-08T18:04:30;18.60;;;11.88;;
38318;SDS011;24121;53.536;10.224;2024-03-08T18:06:56;18.60;;;12.05;;
38318;SDS011;24121;53.536;10.224;2024-03-08T18:09:21;16.98;;;11.75;;
38318;SDS011;24121;53.536;10.224;2024-03-08T18:11:48;19.92;;;12.65;;
38318;SDS011;24121;53.536;10.224;2024-03-08T18:14:15;18.02;;;11.15;;
38318;SDS011;24121;53.536;10.224;2024-03-08T18:16:42;15.93;;;10.85;;
38318;SDS011;24121;53.536;10.224;2024-03-08T18:19:09;19.27;;;11.90;;
38318;SDS011;24121;53.536;10.224;2024-03-08T18:21:35;16.30;;;10.63;;
38318;SDS011;24121;53.536;10.224;2024-03-08T18:24:04;18.90;;;11.70;;
38318;SDS011;24121;53.536;10.224;2024-03-08T18:26:30;15.68;;;10.75;;
38318;SDS011;24121;53.536;10.224;2024-03-08T18:28:59;17.20;;;11.43;;
38318;SDS011;24121;53.536;10.224;2024-03-08T18:31:34;17.50;;;10.68;;
38318;SDS011;24121;53.536;10.224;2024-03-08T18:34:00;17.40;;;11.07;;
38318;SDS011;24121;53.536;10.224;2024-03-08T18:36:26;18.60;;;10.07;;
38318;SDS011;24121;53.536;10.224;2024-03-08T18:38:55;18.63;;;11.50;;
38318;SDS011;24121;53.536;10.224;2024-03-08T18:41:21;17.05;;;11.45;;
38318;SDS011;24121;53.536;10.224;2024-03-08T18:43:47;17.50;;;10.93;;
38318;SDS011;24121;53.536;10.224;2024-03-08T18:46:14;18.67;;;11.23;;
38318;SDS011;24121;53.536;10.224;2024-03-08T18:48:40;16.17;;;11.07;;
38318;SDS011;24121;53.536;10.224;2024-03-08T18:51:05;17.48;;;11.93;;
38318;SDS011;24121;53.536;10.224;2024-03-08T18:53:30;17.52;;;12.50;;
38318;SDS011;24121;53.536;10.224;2024-03-08T18:55:55;16.77;;;10.60;;
38318;SDS011;24121;53.536;10.224;2024-03-08T18:58:21;16.95;;;11.07;;
38318;SDS011;24121;53.536;10.224;2024-03-08T19:00:46;18.55;;;11.65;;
38318;SDS011;24121;53.536;10.224;2024-03-08T19:03:14;18.95;;;11.32;;
38318;SDS011;24121;53.536;10.224;2024-03-08T19:05:41;15.85;;;11.48;;
38318;SDS011;24121;53.536;10.224;2024-03-08T19:08:07;18.15;;;11.60;;
38318;SDS011;24121;53.536;10.224;2024-03-08T19:13:03;18.65;;;11.93;;
38318;SDS011;24121;53.536;10.224;2024-03-08T19:15:28;18.27;;;12.23;;
38318;SDS011;24121;53.536;10.224;2024-03-08T19:17:57;13.13;;;8.38;;
38318;SDS011;24121;53.536;10.224;2024-03-08T19:20:24;17.45;;;10.93;;
38318;SDS011;24121;53.536;10.224;2024-03-08T19:22:55;18.48;;;12.10;;
38318;SDS011;24121;53.536;10.224;2024-03-08T19:25:29;17.08;;;12.20;;
38318;SDS011;24121;53.536;10.224;2024-03-08T19:27:58;16.98;;;12.02;;
38318;SDS011;24121;53.536;10.224;2024-03-08T19:30:25;17.38;;;11.95;;
38318;SDS011;24121;53.536;10.224;2024-03-08T19:32:55;21.92;;;12.57;;
38318;SDS011;24121;53.536;10.224;2024-03-08T19:35:21;19.30;;;11.80;;
38318;SDS011;24121;53.536;10.224;2024-03-08T19:37:48;18.33;;;11.85;;
38318;SDS011;24121;53.536;10.224;2024-03-08T19:40:16;19.27;;;12.10;;
38318;SDS011;24121;53.536;10.224;2024-03-08T19:42:48;18.85;;;12.18;;
38318;SDS011;24121;53.536;10.224;2024-03-08T19:45:15;20.13;;;12.23;;
38318;SDS011;24121;53.536;10.224;2024-03-08T19:47:41;18.38;;;12.25;;
38318;SDS011;24121;53.536;10.224;2024-03-08T19:50:08;17.45;;;12.50;;
38318;SDS011;24121;53.536;10.224;2024-03-08T19:52:34;18.77;;;12.25;;
38318;SDS011;24121;53.536;10.224;2024-03-08T19:54:59;19.65;;;12.43;;
38318;SDS011;24121;53.536;10.224;2024-03-08T19:57:25;19.45;;;12.63;;
38318;SDS011;24121;53.536;10.224;2024-03-08T19:59:52;20.08;;;13.05;;
38318;SDS011;24121;53.536;10.224;2024-03-08T20:02:17;18.63;;;11.70;;
38318;SDS011;24121;53.536;10.224;2024-03-08T20:04:43;17.52;;;11.60;;
38318;SDS011;24121;53.536;10.224;2024-03-08T20:07:09;19.85;;;12.23;;
38318;SDS011;24121;53.536;10.224;2024-03-08T20:09:38;20.20;;;12.95;;
38318;SDS011;24121;53.536;10.224;2024-03-08T20:12:03;18.98;;;13.02;;
38318;SDS011;24121;53.536;10.224;2024-03-08T20:14:32;19.50;;;12.52;;
38318;SDS011;24121;53.536;10.224;2024-03-08T20:17:00;18.98;;;12.38;;
38318;SDS011;24121;53.536;10.224;2024-03-08T20:19:25;17.10;;;12.07;;
38318;SDS011;24121;53.536;10.224;2024-03-08T20:21:50;20.73;;;12.45;;
38318;SDS011;24121;53.536;10.224;2024-03-08T20:24:18;18.45;;;12.10;;
38318;SDS011;24121;53.536;10.224;2024-03-08T20:26:45;20.02;;;12.23;;
38318;SDS011;24121;53.536;10.224;2024-03-08T20:29:11;19.25;;;12.18;;
38318;SDS011;24121;53.536;10.224;2024-03-08T20:31:37;18.40;;;12.32;;
38318;SDS011;24121;53.536;10.224;2024-03-08T20:34:02;20.35;;;12.60;;
38318;SDS011;24121;53.536;10.224;2024-03-08T20:36:27;19.77;;;13.30;;
38318;SDS011;24121;53.536;10.224;2024-03-08T20:38:53;19.60;;;13.27;;
38318;SDS011;24121;53.536;10.224;2024-03-08T20:41:18;19.85;;;12.70;;
38318;SDS011;24121;53.536;10.224;2024-03-08T20:43:43;23.70;;;13.48;;
38318;SDS011;24121;53.536;10.224;2024-03-08T20:46:09;18.33;;;12.90;;
38318;SDS011;24121;53.536;10.224;2024-03-08T20:48:35;22.17;;;13.13;;
38318;SDS011;24121;53.536;10.224;2024-03-08T20:51:00;19.70;;;13.05;;
38318;SDS011;24121;53.536;10.224;2024-03-08T20:53:26;20.77;;;12.93;;
38318;SDS011;24121;53.536;10.224;2024-03-08T20:55:53;25.13;;;14.02;;
38318;SDS011;24121;53.536;10.224;2024-03-08T20:58:19;21.42;;;12.93;;
38318;SDS011;24121;53.536;10.224;2024-03-08T21:00:46;21.75;;;13.52;;
38318;SDS011;24121;53.536;10.224;2024-03-08T21:03:22;19.30;;;13.05;;
38318;SDS011;24121;53.536;10.224;2024-03-08T21:05:49;22.40;;;13.77;;
38318;SDS011;24121;53.536;10.224;2024-03-08T21:08:18;20.83;;;12.90;;
38318;SDS011;24121;53.536;10.224;2024-03-08T21:10:48;21.67;;;13.57;;
38318;SDS011;24121;53.536;10.224;2024-03-08T21:13:16;21.00;;;13.35;;
38318;SDS011;24121;53.536;10.224;2024-03-08T21:15:41;20.70;;;13.57;;
38318;SDS011;24121;53.536;10.224;2024-03-08T21:18:10;20.90;;;14.35;;
38318;SDS011;24121;53.536;10.224;2024-03-08T21:20:37;19.77;;;12.20;;
38318;SDS011;24121;53.536;10.224;2024-03-08T21:23:03;21.35;;;12.45;;
38318;SDS011;24121;53.536;10.224;2024-03-08T21:25:31;19.38;;;12.63;;
38318;SDS011;24121;53.536;10.224;2024-03-08T21:28:00;20.48;;;13.07;;
38318;SDS011;24121;53.536;10.224;2024-03-08T21:30:26;20.70;;;13.18;;
38318;SDS011;24121;53.536;10.224;2024-03-08T21:32:51;19.85;;;12.13;;
38318;SDS011;24121;53.536;10.224;2024-03-08T21:35:17;22.00;;;13.90;;
38318;SDS011;24121;53.536;10.224;2024-03-08T21:37:45;21.77;;;13.65;;
38318;SDS011;24121;53.536;10.224;2024-03-08T21:40:11;20.65;;;13.82;;
38318;SDS011;24121;53.536;10.224;2024-03-08T21:42:37;19.50;;;12.88;;
38318;SDS011;24121;53.536;10.224;2024-03-08T21:45:03;20.30;;;12.23;;
38318;SDS011;24121;53.536;10.224;2024-03-08T21:47:29;20.75;;;12.70;;
38318;SDS011;24121;53.536;10.224;2024-03-08T21:49:55;19.83;;;13.07;;
38318;SDS011;24121;53.536;10.224;2024-03-08T21:52:22;20.95;;;12.65;;
38318;SDS011;24121;53.536;10.224;2024-03-08T21:54:47;18.65;;;12.55;;
38318;SDS011;24121;53.536;10.224;2024-03-08T21:57:13;20.25;;;12.95;;
38318;SDS011;24121;53.536;10.224;2024-03-08T21:59:38;20.58;;;12.73;;
38318;SDS011;24121;53.536;10.224;2024-03-08T22:02:05;20.15;;;12.43;;
38318;SDS011;24121;53.536;10.224;2024-03-08T22:04:30;22.20;;;13.80;;
38318;SDS011;24121;53.536;10.224;2024-03-08T22:06:56;20.58;;;13.15;;
38318;SDS011;24121;53.536;10.224;2024-03-08T22:09:21;19.90;;;12.82;;
38318;SDS011;24121;53.536;10.224;2024-03-08T22:11:48;19.20;;;13.25;;
38318;SDS011;24121;53.536;10.224;2024-03-08T22:14:14;22.73;;;13.10;;
38318;SDS011;24121;53.536;10.224;2024-03-08T22:16:39;19.10;;;12.60;;
38318;SDS011;24121;53.536;10.224;2024-03-08T22:19:05;21.10;;;13.40;;
38318;SDS011;24121;53.536;10.224;2024-03-08T22:21:30;21.10;;;13.38;;
38318;SDS011;24121;53.536;10.224;2024-03-08T22:23:57;19.42;;;12.80;;
38318;SDS011;24121;53.536;10.224;2024-03-08T22:26:23;20.98;;;13.75;;
38318;SDS011;24121;53.536;10.224;2024-03-08T22:28:48;20.45;;;13.80;;
38318;SDS011;24121;53.536;10.224;2024-03-08T22:31:16;21.27;;;13.63;;
38318;SDS011;24121;53.536;10.224;2024-03-08T22:33:42;22.38;;;12.93;;